Time;durP1;ratioP1;P1;durP2;ratioP2;P2;SDS_P1;SDS_P2;PMS_P1;PMS_P2;Temp;Humidity;BMP_temperature;BMP_pressure;BME280_temperature;BME280_humidity;BME280_pressure;Samples;Min_cycle;Max_cycle;Signal;HPM_P1;HPM_P2
2023/03/16 00:00:23;;;;;;;;;;;22.10;78.60;;;;;;5136364;27;19908;-57
2023/03/16 00:02:48;;;;;;;;;;;22.10;78.40;;;;;;5136402;27;19922;-58
2023/03/16 00:05:14;;;;;;;;;;;22.10;78.70;;;;;;5136523;27;19912;-58
2023/03/16 00:07:40;;;;;;;;;;;22.00;78.90;;;;;;5136399;27;20366;-58
2023/03/16 00:10:06;;;;;;;;;;;21.90;79.30;;;;;;5136203;27;19908;-58
2023/03/16 00:12:33;;;;;;;;;;;21.90;79.20;;;;;;5136476;27;20306;-58
2023/03/16 00:14:59;;;;;;;;;;;21.80;79.50;;;;;;5136337;27;19908;-59
2023/03/16 00:17:25;;;;;;;;;;;21.80;79.30;;;;;;5136041;27;19907;-58
2023/03/16 00:19:54;;;;;;;;;;;21.80;79.40;;;;;;5136023;27;19915;-58
2023/03/16 00:22:27;;;;;;;;;;;21.80;79.20;;;;;;5136329;27;19915;-58
2023/03/16 00:24:53;;;;;;;;;;;21.90;79.10;;;;;;5136171;27;19922;-58
2023/03/16 00:27:21;;;;;;;;;;;22.00;78.90;;;;;;5135983;27;19912;-58
2023/03/16 00:29:47;;;;;;;;;;;22.10;78.90;;;;;;5135799;27;20251;-58
2023/03/16 00:32:16;;;;;;;;;;;22.20;78.50;;;;;;5136153;27;19976;-58
2023/03/16 00:34:43;;;;;;;;;;;22.30;78.20;;;;;;5136346;27;20014;-56
2023/03/16 00:37:09;;;;;;;;;;;22.30;78.70;;;;;;5136017;27;19908;-58
2023/03/16 00:39:34;;;;;;;;;;;22.30;78.10;;;;;;5135873;27;20334;-58
2023/03/16 00:42:03;;;;;;;;;;;22.30;78.20;;;;;;5136103;27;19931;-57
2023/03/16 00:44:28;;;;;;;;;;;22.20;78.10;;;;;;5117464;27;20354;-58
2023/03/16 00:46:54;;;;;;;;;;;22.10;78.40;;;;;;5135550;27;20006;-57
2023/03/16 00:49:21;;;;;;;;;;;22.00;78.70;;;;;;5135830;27;19984;-58
2023/03/16 00:51:46;;;;;;;;;;;21.90;78.70;;;;;;5135823;27;19958;-58
2023/03/16 00:54:12;;;;;;;;;;;21.90;79.20;;;;;;5135711;27;20258;-58
2023/03/16 00:56:37;;;;;;;;;;;21.80;79.00;;;;;;5135294;27;19908;-60
2023/03/16 00:59:04;;;;;;;;;;;21.70;79.50;;;;;;5135612;27;19908;-56
2023/03/16 01:01:31;;;;;;;;;;;21.70;79.20;;;;;;5122222;27;20014;-58
2023/03/16 01:03:58;;;;;;;;;;;21.60;79.70;;;;;;5103533;27;20274;-58
2023/03/16 01:06:24;;;;;;;;;;;21.70;79.60;;;;;;5106397;27;19916;-58
2023/03/16 01:08:51;;;;;;;;;;;21.80;79.70;;;;;;5113308;28;19920;-56
2023/03/16 01:11:20;;;;;;;;;;;21.90;79.70;;;;;;5113779;28;19915;-58
2023/03/16 01:13:47;;;;;;;;;;;22.10;79.20;;;;;;5113301;28;19943;-58
2023/03/16 01:16:13;;;;;;;;;;;22.30;78.70;;;;;;5112726;28;19915;-58
2023/03/16 01:18:39;;;;;;;;;;;22.40;78.70;;;;;;5112374;28;19908;-55
2023/03/16 01:21:06;;;;;;;;;;;22.40;77.60;;;;;;5112433;28;19952;-58
2023/03/16 01:23:32;;;;;;;;;;;22.40;78.30;;;;;;5112338;28;19931;-58
2023/03/16 01:25:58;;;;;;;;;;;22.40;78.40;;;;;;5111770;28;19935;-58
2023/03/16 01:28:24;;;;;;;;;;;22.30;78.80;;;;;;5114117;28;19923;-58
2023/03/16 01:30:54;;;;;;;;;;;22.20;78.80;;;;;;5115934;28;19994;-58
2023/03/16 01:33:20;;;;;;;;;;;22.10;78.80;;;;;;5122465;27;19958;-56
2023/03/16 01:35:59;;;;;;;;;;;22.00;79.20;;;;;;5114599;28;19908;-57
2023/03/16 01:38:25;;;;;;;;;;;21.90;79.50;;;;;;5094205;28;19916;-58
2023/03/16 01:40:52;;;;;;;;;;;21.80;79.60;;;;;;5094194;28;19920;-58
2023/03/16 01:43:19;;;;;;;;;;;21.70;80.00;;;;;;5094106;28;19908;-58
2023/03/16 01:46:01;;;;;;;;;;;21.70;79.90;;;;;;5108304;28;20263;-56
2023/03/16 01:48:27;;;;;;;;;;;21.70;79.90;;;;;;5107880;28;19920;-58
2023/03/16 01:50:52;;;;;;;;;;;21.70;79.90;;;;;;5104598;28;19912;-56
2023/03/16 01:53:20;;;;;;;;;;;21.80;80.10;;;;;;5102890;28;19912;-58
2023/03/16 01:55:46;;;;;;;;;;;21.90;79.50;;;;;;5114479;28;19915;-59
2023/03/16 01:58:13;;;;;;;;;;;22.10;79.20;;;;;;5096069;28;20266;-58
2023/03/16 02:00:40;;;;;;;;;;;22.20;79.10;;;;;;5113967;28;19915;-57
2023/03/16 02:03:08;;;;;;;;;;;22.30;78.80;;;;;;5113510;28;19917;-58
2023/03/16 02:05:33;;;;;;;;;;;22.40;78.40;;;;;;5113748;28;20010;-57
2023/03/16 02:07:59;;;;;;;;;;;22.40;78.20;;;;;;5112567;28;19959;-57
2023/03/16 02:10:27;;;;;;;;;;;22.40;78.20;;;;;;5114003;28;19908;-57
2023/03/16 02:12:53;;;;;;;;;;;22.30;78.10;;;;;;5114170;28;19954;-56
2023/03/16 02:15:19;;;;;;;;;;;22.30;79.00;;;;;;5114549;28;20339;-58
2023/03/16 02:17:45;;;;;;;;;;;22.10;78.30;;;;;;5114651;28;19916;-57
2023/03/16 02:20:21;;;;;;;;;;;22.10;78.70;;;;;;5118166;28;19953;-58
2023/03/16 02:22:47;;;;;;;;;;;22.00;79.20;;;;;;5108897;27;19958;-57
2023/03/16 02:25:15;;;;;;;;;;;21.90;78.50;;;;;;5114287;28;19907;-56
2023/03/16 02:27:49;;;;;;;;;;;21.90;79.20;;;;;;5118023;28;20269;-57
2023/03/16 02:30:16;;;;;;;;;;;21.90;79.40;;;;;;5117692;28;19956;-59
2023/03/16 02:32:42;;;;;;;;;;;21.80;79.30;;;;;;5118012;28;19935;-57
2023/03/16 02:35:08;;;;;;;;;;;21.90;79.50;;;;;;5117883;28;19904;-58
2023/03/16 02:37:34;;;;;;;;;;;21.90;79.40;;;;;;5117925;28;19948;-58
2023/03/16 02:40:00;;;;;;;;;;;22.00;79.10;;;;;;5117497;28;19907;-57
2023/03/16 02:42:27;;;;;;;;;;;22.10;79.00;;;;;;5117120;28;19908;-59
2023/03/16 02:44:56;;;;;;;;;;;22.20;76.60;;;;;;5116913;28;20261;-58
2023/03/16 02:47:42;;;;;;;;;;;21.80;71.40;;;;;;5116289;28;20273;-57
2023/03/16 02:50:09;;;;;;;;;;;22.00;75.90;;;;;;5117189;28;19990;-56
2023/03/16 02:52:35;;;;;;;;;;;22.10;77.20;;;;;;5117605;28;19904;-57
2023/03/16 02:55:01;;;;;;;;;;;22.20;77.10;;;;;;5117331;28;19939;-56
2023/03/16 02:57:26;;;;;;;;;;;22.10;77.40;;;;;;5117502;28;20365;-57
2023/03/16 02:59:52;;;;;;;;;;;22.10;77.30;;;;;;5117231;28;20247;-55
2023/03/16 03:02:17;;;;;;;;;;;22.10;77.30;;;;;;5117626;28;19998;-57
2023/03/16 03:04:45;;;;;;;;;;;22.00;77.50;;;;;;5117047;28;19904;-58
2023/03/16 03:07:14;;;;;;;;;;;22.00;77.80;;;;;;5117251;28;19918;-58
2023/03/16 03:09:41;;;;;;;;;;;21.90;77.80;;;;;;5116946;28;19908;-58
2023/03/16 03:12:08;;;;;;;;;;;21.90;77.90;;;;;;5116786;28;20434;-57
2023/03/16 03:14:36;;;;;;;;;;;21.80;78.00;;;;;;5117527;28;19904;-56
2023/03/16 03:17:03;;;;;;;;;;;21.80;78.40;;;;;;5116817;28;19956;-57
2023/03/16 03:19:28;;;;;;;;;;;21.80;78.30;;;;;;5116805;28;19951;-58
2023/03/16 03:21:57;;;;;;;;;;;21.80;78.60;;;;;;5117080;28;19972;-59
2023/03/16 03:24:22;;;;;;;;;;;21.90;78.30;;;;;;5098718;28;19904;-58
2023/03/16 03:26:48;;;;;;;;;;;21.90;78.10;;;;;;5116648;28;19915;-58
2023/03/16 03:29:13;;;;;;;;;;;22.00;78.00;;;;;;5116745;28;19914;-57
2023/03/16 03:31:38;;;;;;;;;;;22.10;77.90;;;;;;5116904;28;19904;-58
2023/03/16 03:34:05;;;;;;;;;;;22.20;77.80;;;;;;5116541;28;20391;-58
2023/03/16 03:36:32;;;;;;;;;;;22.20;77.60;;;;;;5116451;28;20326;-58
2023/03/16 03:38:57;;;;;;;;;;;22.30;77.70;;;;;;5116503;28;19915;-57
2023/03/16 03:41:23;;;;;;;;;;;22.30;77.40;;;;;;5116265;28;19916;-56
2023/03/16 03:43:48;;;;;;;;;;;22.30;77.40;;;;;;5116673;28;20375;-55
2023/03/16 03:46:14;;;;;;;;;;;22.20;77.60;;;;;;5116502;28;19930;-55
2023/03/16 03:48:39;;;;;;;;;;;22.20;77.70;;;;;;5116573;28;19918;-56
2023/03/16 03:51:05;;;;;;;;;;;22.10;78.00;;;;;;5116771;28;19904;-56
2023/03/16 03:53:31;;;;;;;;;;;22.10;78.10;;;;;;5116420;28;19911;-56
2023/03/16 03:55:56;;;;;;;;;;;22.00;78.30;;;;;;5116100;28;19911;-56
2023/03/16 03:58:22;;;;;;;;;;;22.00;78.00;;;;;;5115954;28;19904;-57
2023/03/16 04:00:47;;;;;;;;;;;21.90;78.30;;;;;;5116315;28;19908;-55
2023/03/16 04:03:13;;;;;;;;;;;21.90;78.30;;;;;;5115910;28;20335;-57
2023/03/16 04:05:38;;;;;;;;;;;21.90;78.20;;;;;;5097555;28;19907;-57
2023/03/16 04:08:04;;;;;;;;;;;21.90;78.50;;;;;;5116397;28;19915;-57
2023/03/16 04:10:30;;;;;;;;;;;22.00;78.30;;;;;;5116007;28;19907;-56
2023/03/16 04:12:56;;;;;;;;;;;22.00;78.30;;;;;;5115587;28;20295;-55
2023/03/16 04:15:21;;;;;;;;;;;22.10;78.30;;;;;;5115881;28;20361;-56
2023/03/16 04:17:48;;;;;;;;;;;22.10;78.10;;;;;;5116079;28;19908;-56
2023/03/16 04:20:14;;;;;;;;;;;22.20;78.10;;;;;;5115836;28;19903;-56
2023/03/16 04:22:41;;;;;;;;;;;22.20;78.20;;;;;;5115772;28;20254;-57
2023/03/16 04:25:07;;;;;;;;;;;22.30;77.90;;;;;;5115747;28;20414;-57
2023/03/16 04:27:35;;;;;;;;;;;22.20;77.60;;;;;;5115614;28;19908;-56
2023/03/16 04:30:04;;;;;;;;;;;22.20;77.60;;;;;;5097407;28;19904;-57
2023/03/16 04:32:30;;;;;;;;;;;22.20;77.80;;;;;;5115327;28;20478;-57
2023/03/16 04:34:56;;;;;;;;;;;22.20;78.00;;;;;;5115440;28;19911;-57
2023/03/16 04:37:21;;;;;;;;;;;22.10;77.90;;;;;;5115451;28;19904;-56
2023/03/16 04:39:47;;;;;;;;;;;22.10;78.10;;;;;;5115243;28;20346;-56
2023/03/16 04:42:12;;;;;;;;;;;22.10;78.40;;;;;;5115031;28;19999;-56
2023/03/16 04:44:43;;;;;;;;;;;22.00;78.50;;;;;;5115385;28;19904;-56
2023/03/16 04:47:12;;;;;;;;;;;22.00;78.40;;;;;;5115270;28;19915;-55
2023/03/16 04:49:38;;;;;;;;;;;22.00;78.30;;;;;;5115315;28;19908;-57
2023/03/16 04:52:04;;;;;;;;;;;22.00;78.40;;;;;;5114960;28;19948;-57
2023/03/16 04:54:30;;;;;;;;;;;22.00;78.10;;;;;;5114916;28;19932;-57
2023/03/16 04:56:55;;;;;;;;;;;22.10;78.20;;;;;;5115289;28;19904;-57
2023/03/16 04:59:21;;;;;;;;;;;22.10;78.30;;;;;;5114848;28;19904;-57
2023/03/16 05:01:47;;;;;;;;;;;22.10;78.20;;;;;;5115192;28;19908;-56
2023/03/16 05:04:13;;;;;;;;;;;22.20;77.90;;;;;;5114628;28;19910;-57
2023/03/16 05:06:38;;;;;;;;;;;22.20;78.00;;;;;;5114624;28;19962;-56
2023/03/16 05:09:07;;;;;;;;;;;22.20;78.00;;;;;;5114991;28;20364;-56
2023/03/16 05:11:32;;;;;;;;;;;22.30;77.80;;;;;;5114608;28;20262;-55
2023/03/16 05:13:58;;;;;;;;;;;22.30;77.90;;;;;;5114600;28;19903;-56
2023/03/16 05:16:23;;;;;;;;;;;22.20;77.70;;;;;;5114613;28;19908;-57
2023/03/16 05:18:49;;;;;;;;;;;22.20;78.00;;;;;;5114573;28;20254;-55
2023/03/16 05:21:15;;;;;;;;;;;22.10;78.00;;;;;;5114606;28;20011;-55
2023/03/16 05:23:40;;;;;;;;;;;22.10;78.10;;;;;;5114174;28;19907;-56
2023/03/16 05:26:06;;;;;;;;;;;22.00;78.20;;;;;;5114544;28;20390;-55
2023/03/16 05:28:32;;;;;;;;;;;22.00;78.90;;;;;;5114614;28;19908;-57
2023/03/16 05:30:57;;;;;;;;;;;22.00;78.60;;;;;;5112520;28;19924;-57
2023/03/16 05:33:22;;;;;;;;;;;22.00;78.60;;;;;;5102987;28;20259;-56
2023/03/16 05:35:49;;;;;;;;;;;22.00;78.30;;;;;;5114233;28;19996;-55
2023/03/16 05:38:15;;;;;;;;;;;22.00;78.50;;;;;;5114140;28;19908;-56
2023/03/16 05:40:41;;;;;;;;;;;22.10;78.50;;;;;;5112583;28;19926;-52
2023/03/16 05:43:06;;;;;;;;;;;22.10;78.30;;;;;;5112122;28;19953;-54
2023/03/16 05:45:32;;;;;;;;;;;22.30;78.90;;;;;;5112084;28;19965;-54
2023/03/16 05:47:58;;;;;;;;;;;22.40;78.40;;;;;;5112351;28;19965;-57
2023/03/16 05:50:23;;;;;;;;;;;22.40;78.20;;;;;;5111971;28;20274;-55
2023/03/16 05:52:49;;;;;;;;;;;22.30;78.20;;;;;;5112686;28;19952;-54
2023/03/16 05:55:15;;;;;;;;;;;22.30;78.30;;;;;;5117229;28;19915;-53
2023/03/16 05:57:41;;;;;;;;;;;22.20;78.40;;;;;;5118454;28;19993;-55
2023/03/16 06:00:14;;;;;;;;;;;22.10;78.50;;;;;;5118503;28;20426;-56
2023/03/16 06:02:43;;;;;;;;;;;22.00;78.60;;;;;;5118375;28;19919;-56
2023/03/16 06:05:09;;;;;;;;;;;21.90;78.80;;;;;;5118049;28;19920;-56
2023/03/16 06:07:35;;;;;;;;;;;21.80;78.90;;;;;;5118091;28;19957;-56
2023/03/16 06:10:01;;;;;;;;;;;21.80;79.10;;;;;;5100010;28;19907;-56
2023/03/16 06:12:26;;;;;;;;;;;21.70;79.10;;;;;;5118211;28;20274;-55
2023/03/16 06:14:51;;;;;;;;;;;21.80;79.10;;;;;;5117837;28;19907;-57
2023/03/16 06:17:17;;;;;;;;;;;21.80;78.40;;;;;;5118039;28;19915;-57
2023/03/16 06:19:42;;;;;;;;;;;21.90;77.40;;;;;;5117755;28;19944;-57
2023/03/16 06:22:08;;;;;;;;;;;22.00;76.90;;;;;;5117627;28;20380;-53
2023/03/16 06:24:33;;;;;;;;;;;22.10;77.60;;;;;;5117643;28;20310;-59
2023/03/16 06:26:59;;;;;;;;;;;22.30;77.40;;;;;;5117450;28;19973;-60
2023/03/16 06:29:24;;;;;;;;;;;22.40;75.60;;;;;;5115543;28;19928;-59
2023/03/16 06:31:51;;;;;;;;;;;22.30;76.30;;;;;;5116924;28;20362;-60
2023/03/16 06:34:17;;;;;;;;;;;22.20;75.40;;;;;;5116863;28;19919;-60
2023/03/16 06:36:42;;;;;;;;;;;22.20;75.70;;;;;;5115315;28;20006;-60
2023/03/16 06:39:08;;;;;;;;;;;22.00;75.50;;;;;;5112597;28;19915;-56
2023/03/16 06:41:34;;;;;;;;;;;21.90;76.00;;;;;;5110995;28;19998;-60
2023/03/16 06:44:00;;;;;;;;;;;21.90;77.20;;;;;;5114594;27;19915;-70
2023/03/16 06:46:26;;;;;;;;;;;21.90;78.60;;;;;;5107655;27;19919;-66
2023/03/16 06:48:51;;;;;;;;;;;21.80;78.40;;;;;;5126435;27;19911;-64
2023/03/16 06:51:17;;;;;;;;;;;21.70;78.80;;;;;;5116407;28;19999;-63
2023/03/16 06:53:43;;;;;;;;;;;21.60;79.30;;;;;;5125763;27;19912;-65
2023/03/16 06:56:08;;;;;;;;;;;21.60;79.60;;;;;;5117371;28;20041;-62
2023/03/16 06:58:33;;;;;;;;;;;21.50;80.10;;;;;;5114725;28;20355;-63
2023/03/16 07:01:03;;;;;;;;;;;21.40;80.40;;;;;;5119800;27;19919;-63
2023/03/16 07:03:28;;;;;;;;;;;21.30;80.80;;;;;;5117257;27;19912;-60
2023/03/16 07:05:54;;;;;;;;;;;21.30;81.10;;;;;;5115627;28;20267;-60
2023/03/16 07:08:19;;;;;;;;;;;21.20;81.20;;;;;;5115335;28;20328;-61
2023/03/16 07:10:45;;;;;;;;;;;21.20;81.40;;;;;;5116680;28;19908;-63
2023/03/16 07:13:10;;;;;;;;;;;21.10;81.60;;;;;;5115607;28;19918;-57
2023/03/16 07:15:36;;;;;;;;;;;21.10;81.90;;;;;;5116685;28;19912;-62
2023/03/16 07:18:01;;;;;;;;;;;21.00;82.00;;;;;;5117742;27;19956;-67
2023/03/16 07:20:30;;;;;;;;;;;21.00;82.20;;;;;;5113975;28;19912;-63
2023/03/16 07:22:55;;;;;;;;;;;20.90;82.20;;;;;;5096521;28;19919;-62
2023/03/16 07:25:21;;;;;;;;;;;20.90;82.40;;;;;;5116452;28;20358;-67
2023/03/16 07:27:46;;;;;;;;;;;20.90;82.50;;;;;;5114269;28;20143;-65
2023/03/16 07:30:13;;;;;;;;;;;20.80;82.60;;;;;;5115317;28;19915;-66
2023/03/16 07:32:40;;;;;;;;;;;20.80;82.70;;;;;;5095783;28;20260;-65
2023/03/16 07:35:06;;;;;;;;;;;20.80;82.80;;;;;;5115034;28;19912;-63
2023/03/16 07:37:33;;;;;;;;;;;20.70;82.90;;;;;;5114844;28;19912;-58
2023/03/16 07:39:59;;;;;;;;;;;20.70;82.90;;;;;;5116002;28;20381;-64
2023/03/16 07:42:25;;;;;;;;;;;20.70;83.10;;;;;;5114567;28;19920;-63
2023/03/16 07:44:50;;;;;;;;;;;20.70;83.10;;;;;;5116123;28;19930;-65
2023/03/16 07:47:16;;;;;;;;;;;20.60;83.20;;;;;;5111879;28;20018;-65
2023/03/16 07:49:43;;;;;;;;;;;20.60;83.30;;;;;;5116578;28;20006;-65
2023/03/16 07:52:08;;;;;;;;;;;20.60;83.40;;;;;;5118642;27;19907;-62
2023/03/16 07:54:34;;;;;;;;;;;20.50;83.40;;;;;;5136767;27;19964;-66
2023/03/16 07:57:00;;;;;;;;;;;20.50;83.40;;;;;;5113600;28;19954;-64
2023/03/16 07:59:26;;;;;;;;;;;20.50;83.50;;;;;;5114677;28;19955;-63
2023/03/16 08:01:51;;;;;;;;;;;20.50;83.50;;;;;;5113546;28;19915;-64
2023/03/16 08:04:16;;;;;;;;;;;20.40;83.70;;;;;;5114101;28;19926;-61
2023/03/16 08:06:42;;;;;;;;;;;20.40;83.80;;;;;;5114356;28;19912;-65
2023/03/16 08:09:07;;;;;;;;;;;20.40;83.80;;;;;;5115052;28;19916;-63
2023/03/16 08:11:33;;;;;;;;;;;20.40;83.80;;;;;;5115204;28;19919;-65
2023/03/16 08:13:59;;;;;;;;;;;20.40;83.90;;;;;;5115929;28;19907;-64
2023/03/16 08:16:25;;;;;;;;;;;20.40;84.00;;;;;;5109757;28;19908;-64
2023/03/16 08:18:51;;;;;;;;;;;20.30;84.00;;;;;;5113583;28;19994;-64
2023/03/16 08:21:17;;;;;;;;;;;20.30;83.70;;;;;;5110059;28;19946;-64
2023/03/16 08:23:47;;;;;;;;;;;20.30;83.90;;;;;;5097141;28;19911;-63
2023/03/16 08:26:17;;;;;;;;;;;20.30;83.90;;;;;;5110443;28;20291;-65
2023/03/16 08:28:46;;;;;;;;;;;20.30;83.80;;;;;;5112360;28;19965;-64
2023/03/16 08:31:14;;;;;;;;;;;20.30;83.80;;;;;;5111518;28;20276;-64
2023/03/16 08:33:40;;;;;;;;;;;20.30;83.80;;;;;;5113563;28;19912;-65
2023/03/16 08:36:07;;;;;;;;;;;20.30;83.70;;;;;;5115334;28;19925;-64
2023/03/16 08:38:33;;;;;;;;;;;20.30;83.70;;;;;;5114187;28;19915;-64
2023/03/16 08:40:59;;;;;;;;;;;20.20;83.60;;;;;;5108818;28;19920;-63
2023/03/16 08:43:25;;;;;;;;;;;20.20;83.70;;;;;;5111671;28;19912;-63
2023/03/16 08:45:51;;;;;;;;;;;20.20;83.70;;;;;;5112973;28;20381;-63
2023/03/16 08:48:17;;;;;;;;;;;20.20;83.80;;;;;;5115214;28;19908;-62
2023/03/16 08:50:43;;;;;;;;;;;20.20;83.80;;;;;;5111411;28;19915;-63
2023/03/16 08:53:09;;;;;;;;;;;20.20;83.80;;;;;;5125777;27;19907;-63
2023/03/16 08:55:35;;;;;;;;;;;20.20;83.90;;;;;;5126881;27;19915;-63
2023/03/16 08:58:01;;;;;;;;;;;20.20;83.90;;;;;;5113487;28;20052;-61
2023/03/16 09:00:27;;;;;;;;;;;20.20;83.90;;;;;;5113630;28;19990;-62
2023/03/16 09:02:54;;;;;;;;;;;20.20;84.00;;;;;;5110237;28;19958;-63
2023/03/16 09:05:19;;;;;;;;;;;20.10;83.90;;;;;;5092020;28;20228;-62
2023/03/16 09:07:46;;;;;;;;;;;20.10;83.80;;;;;;5096616;28;19911;-63
2023/03/16 09:10:14;;;;;;;;;;;20.10;83.90;;;;;;5107718;28;19912;-65
2023/03/16 09:12:43;;;;;;;;;;;20.10;83.90;;;;;;5113297;28;19916;-62
2023/03/16 09:15:10;;;;;;;;;;;20.10;84.00;;;;;;5115115;28;19908;-63
2023/03/16 09:17:37;;;;;;;;;;;20.10;84.00;;;;;;5114596;28;19961;-64
2023/03/16 09:20:04;;;;;;;;;;;20.10;84.50;;;;;;5114851;28;19960;-63
2023/03/16 09:22:29;;;;;;;;;;;20.10;84.00;;;;;;5114291;28;19939;-63
2023/03/16 09:24:55;;;;;;;;;;;20.00;84.00;;;;;;5114271;28;19915;-64
2023/03/16 09:27:21;;;;;;;;;;;20.10;84.10;;;;;;5111832;28;20358;-62
2023/03/16 09:29:47;;;;;;;;;;;20.10;84.00;;;;;;5114375;28;19907;-64
2023/03/16 09:32:13;;;;;;;;;;;20.10;84.20;;;;;;5111612;28;19912;-63
2023/03/16 09:34:38;;;;;;;;;;;20.00;83.40;;;;;;5112501;28;19999;-64
2023/03/16 09:37:04;;;;;;;;;;;20.00;84.00;;;;;;5114105;28;19916;-63
2023/03/16 09:39:30;;;;;;;;;;;20.00;83.80;;;;;;5112477;28;19941;-66
2023/03/16 09:42:08;;;;;;;;;;;20.00;84.00;;;;;;5114351;28;19920;-66
2023/03/16 09:44:53;;;;;;;;;;;20.00;84.00;;;;;;5110643;28;19911;-67
2023/03/16 09:47:22;;;;;;;;;;;20.00;84.00;;;;;;5112332;28;19923;-63
2023/03/16 09:49:49;;;;;;;;;;;20.00;84.00;;;;;;5111417;28;19916;-66
2023/03/16 09:52:47;;;;;;;;;;;20.00;84.20;;;;;;5095200;28;19977;-64
2023/03/16 09:55:24;;;;;;;;;;;20.00;84.30;;;;;;5078936;28;20052;-64
2023/03/16 09:57:51;;;;;;;;;;;19.90;84.40;;;;;;5113989;28;19911;-63
2023/03/16 10:00:18;;;;;;;;;;;20.00;84.40;;;;;;5109763;28;19912;-59
2023/03/16 10:02:50;;;;;;;;;;;20.00;84.40;;;;;;5108950;28;19916;-57
2023/03/16 10:05:19;;;;;;;;;;;20.00;84.30;;;;;;5113947;28;19915;-64
2023/03/16 10:08:03;;;;;;;;;;;20.00;84.30;;;;;;5113232;28;19923;-66
2023/03/16 10:10:41;;;;;;;;;;;20.00;84.30;;;;;;5113024;28;19965;-67
2023/03/16 10:13:14;;;;;;;;;;;20.00;84.40;;;;;;5114481;28;19908;-67
2023/03/16 10:15:39;;;;;;;;;;;20.00;84.30;;;;;;5110826;28;19912;-65
2023/03/16 10:18:09;;;;;;;;;;;20.00;84.30;;;;;;5095750;28;19914;-65
2023/03/16 10:20:35;;;;;;;;;;;20.00;84.40;;;;;;5091745;28;19924;-64
2023/03/16 10:23:12;;;;;;;;;;;19.90;84.50;;;;;;5112829;28;19912;-65
2023/03/16 10:25:43;;;;;;;;;;;19.90;84.50;;;;;;5111270;28;20014;-64
2023/03/16 10:28:13;;;;;;;;;;;19.90;84.40;;;;;;5095543;28;19916;-65
2023/03/16 10:30:39;;;;;;;;;;;19.90;84.40;;;;;;5112395;28;19908;-66
2023/03/16 10:33:20;;;;;;;;;;;20.00;84.60;;;;;;5111055;28;19934;-67
2023/03/16 10:35:48;;;;;;;;;;;19.90;84.50;;;;;;5110806;28;19911;-67
2023/03/16 10:38:37;;;;;;;;;;;19.90;84.50;;;;;;5110159;28;19991;-67
2023/03/16 10:41:24;;;;;;;;;;;19.90;84.30;;;;;;5115226;28;20406;-66
2023/03/16 10:43:50;;;;;;;;;;;19.90;84.60;;;;;;5116948;28;20282;-68
2023/03/16 10:46:16;;;;;;;;;;;19.90;84.40;;;;;;5113219;28;19923;-64
2023/03/16 10:48:49;;;;;;;;;;;19.90;84.40;;;;;;5117449;28;19912;-62
2023/03/16 10:51:16;;;;;;;;;;;19.90;84.40;;;;;;5115821;28;19912;-62
2023/03/16 10:53:43;;;;;;;;;;;19.90;84.30;;;;;;5120439;27;20404;-69
2023/03/16 10:56:13;;;;;;;;;;;19.90;84.10;;;;;;5114819;28;19908;-66
2023/03/16 10:58:41;;;;;;;;;;;19.90;84.30;;;;;;5117038;28;19904;-66
2023/03/16 11:01:17;;;;;;;;;;;19.90;84.20;;;;;;5113566;28;20243;-64
2023/03/16 11:03:46;;;;;;;;;;;19.90;84.20;;;;;;5115185;28;19908;-62
2023/03/16 11:06:21;;;;;;;;;;;19.90;84.20;;;;;;5115631;28;19918;-64
2023/03/16 11:08:47;;;;;;;;;;;19.90;84.20;;;;;;5115390;28;20542;-63
2023/03/16 11:11:15;;;;;;;;;;;19.90;84.10;;;;;;5117263;28;19904;-61
2023/03/16 11:13:47;;;;;;;;;;;19.90;84.30;;;;;;5114292;28;19908;-65
2023/03/16 11:16:13;;;;;;;;;;;19.90;83.10;;;;;;5114920;28;19939;-63
2023/03/16 11:18:47;;;;;;;;;;;19.90;84.10;;;;;;5117013;28;19904;-67
2023/03/16 11:21:19;;;;;;;;;;;19.90;84.30;;;;;;5112487;28;19915;-65
2023/03/16 11:23:48;;;;;;;;;;;19.90;84.30;;;;;;5114600;28;19908;-65
2023/03/16 11:26:16;;;;;;;;;;;19.90;84.40;;;;;;5112269;28;19920;-62
2023/03/16 11:28:45;;;;;;;;;;;19.90;84.00;;;;;;5113799;28;19916;-63
2023/03/16 11:31:44;;;;;;;;;;;19.90;84.30;;;;;;5112254;28;19926;-61
2023/03/16 11:34:13;;;;;;;;;;;19.90;84.30;;;;;;5061643;28;19964;-63
2023/03/16 11:36:46;;;;;;;;;;;19.90;84.30;;;;;;5116433;28;19990;-59
2023/03/16 11:39:20;;;;;;;;;;;19.90;84.30;;;;;;5116335;28;19908;-58
2023/03/16 11:41:52;;;;;;;;;;;19.90;84.20;;;;;;5116357;28;19927;-58
2023/03/16 11:44:41;;;;;;;;;;;19.90;84.20;;;;;;5115620;28;20355;-57
2023/03/16 11:47:28;;;;;;;;;;;19.90;84.20;;;;;;5107590;28;19999;-58
2023/03/16 11:50:00;;;;;;;;;;;19.80;84.10;;;;;;5115951;28;19908;-58
2023/03/16 11:52:35;;;;;;;;;;;19.80;84.10;;;;;;5119910;27;20344;-59
2023/03/16 11:55:03;;;;;;;;;;;19.80;84.10;;;;;;5113977;28;19960;-61
2023/03/16 11:57:32;;;;;;;;;;;19.80;83.80;;;;;;5094211;28;19912;-63
2023/03/16 12:00:06;;;;;;;;;;;19.80;84.00;;;;;;5116012;28;19915;-65
2023/03/16 12:02:44;;;;;;;;;;;19.80;83.90;;;;;;5114496;28;19912;-64
2023/03/16 12:05:22;;;;;;;;;;;19.80;83.80;;;;;;5113214;28;19912;-64
2023/03/16 12:07:54;;;;;;;;;;;19.80;83.90;;;;;;5114183;28;19919;-63
2023/03/16 12:10:25;;;;;;;;;;;19.80;84.00;;;;;;5113028;28;19911;-64
2023/03/16 12:13:09;;;;;;;;;;;19.80;84.00;;;;;;5113287;28;19916;-64
2023/03/16 12:15:35;;;;;;;;;;;19.80;84.10;;;;;;5094116;28;20298;-64
2023/03/16 12:18:05;;;;;;;;;;;19.80;84.20;;;;;;5111159;28;20015;-64
2023/03/16 12:20:37;;;;;;;;;;;19.70;84.30;;;;;;5112742;28;20335;-65
2023/03/16 12:23:25;;;;;;;;;;;19.70;84.50;;;;;;5113409;28;20327;-65
2023/03/16 12:25:51;;;;;;;;;;;19.70;84.60;;;;;;5105374;28;19935;-63
2023/03/16 12:28:22;;;;;;;;;;;19.70;84.70;;;;;;5115167;28;20002;-62
2023/03/16 12:30:47;;;;;;;;;;;19.70;84.50;;;;;;5110296;28;20023;-63
2023/03/16 12:33:21;;;;;;;;;;;19.70;84.40;;;;;;5113688;28;20353;-57
2023/03/16 12:36:02;;;;;;;;;;;19.80;84.40;;;;;;5110010;28;19919;-62
2023/03/16 12:38:48;;;;;;;;;;;19.80;84.40;;;;;;5108659;28;20294;-64
2023/03/16 12:41:15;;;;;;;;;;;19.80;84.30;;;;;;5113341;28;19919;-64
2023/03/16 12:43:46;;;;;;;;;;;19.80;84.50;;;;;;5110116;28;20488;-64
2023/03/16 12:46:12;;;;;;;;;;;19.80;84.30;;;;;;5110519;28;20154;-63
2023/03/16 12:48:43;;;;;;;;;;;19.80;84.50;;;;;;5113153;28;21806;-61
2023/03/16 12:51:09;;;;;;;;;;;19.80;84.60;;;;;;5111037;28;19957;-62
2023/03/16 12:53:52;;;;;;;;;;;19.80;84.50;;;;;;5109516;27;19980;-60
2023/03/16 12:56:27;;;;;;;;;;;19.70;84.50;;;;;;5093022;28;19912;-63
2023/03/16 12:58:54;;;;;;;;;;;19.70;84.50;;;;;;5114934;28;19912;-66
2023/03/16 13:01:27;;;;;;;;;;;19.70;84.50;;;;;;5111272;28;19916;-67
2023/03/16 13:03:59;;;;;;;;;;;19.80;84.60;;;;;;5111450;28;19912;-60
2023/03/16 13:06:29;;;;;;;;;;;19.80;84.60;;;;;;5112223;28;19916;-62
2023/03/16 13:08:58;;;;;;;;;;;19.80;84.60;;;;;;5111970;28;19912;-64
2023/03/16 13:11:25;;;;;;;;;;;19.80;84.60;;;;;;5113447;28;19912;-65
2023/03/16 13:14:00;;;;;;;;;;;19.80;84.70;;;;;;5113330;28;20324;-65
2023/03/16 13:16:28;;;;;;;;;;;19.80;84.60;;;;;;5114607;28;19988;-65
2023/03/16 13:18:54;;;;;;;;;;;19.80;84.60;;;;;;5112633;28;19999;-66
2023/03/16 13:21:20;;;;;;;;;;;19.80;84.70;;;;;;5112216;28;20365;-65
2023/03/16 13:23:53;;;;;;;;;;;19.80;84.70;;;;;;5111810;28;19998;-63
2023/03/16 13:26:29;;;;;;;;;;;19.70;84.70;;;;;;5111364;28;19919;-62
2023/03/16 13:28:54;;;;;;;;;;;19.80;84.70;;;;;;5113809;28;19916;-60
2023/03/16 13:31:26;;;;;;;;;;;19.80;84.70;;;;;;5107706;28;20330;-62
2023/03/16 13:33:55;;;;;;;;;;;19.70;84.70;;;;;;5112464;28;19952;-64
2023/03/16 13:36:22;;;;;;;;;;;19.80;84.70;;;;;;5112217;28;19908;-59
2023/03/16 13:38:55;;;;;;;;;;;19.80;84.70;;;;;;5109428;28;19923;-62
2023/03/16 13:41:20;;;;;;;;;;;19.70;84.70;;;;;;5112605;28;20057;-62
2023/03/16 13:43:45;;;;;;;;;;;19.80;84.70;;;;;;5114173;28;19961;-62
2023/03/16 13:46:14;;;;;;;;;;;19.80;84.70;;;;;;5111877;28;19912;-63
2023/03/16 13:48:40;;;;;;;;;;;19.80;84.70;;;;;;5111161;28;20010;-63
2023/03/16 13:51:10;;;;;;;;;;;19.80;84.70;;;;;;5110453;28;19977;-63
2023/03/16 13:53:39;;;;;;;;;;;19.70;84.70;;;;;;5114032;28;19908;-64
2023/03/16 13:56:05;;;;;;;;;;;19.70;84.80;;;;;;5113299;28;19912;-64
2023/03/16 13:58:33;;;;;;;;;;;19.70;84.80;;;;;;5112590;28;19908;-65
2023/03/16 14:00:59;;;;;;;;;;;19.70;84.80;;;;;;5107852;28;19912;-63
2023/03/16 14:03:35;;;;;;;;;;;19.70;84.80;;;;;;5111970;28;19915;-64
2023/03/16 14:06:02;;;;;;;;;;;19.70;84.80;;;;;;5107505;28;20392;-65
2023/03/16 14:08:28;;;;;;;;;;;19.70;84.80;;;;;;5110323;28;19947;-64
2023/03/16 14:10:55;;;;;;;;;;;19.70;84.80;;;;;;5109376;28;19945;-65
2023/03/16 14:13:24;;;;;;;;;;;19.70;84.90;;;;;;5108781;28;19923;-61
2023/03/16 14:15:50;;;;;;;;;;;19.70;85.00;;;;;;5117849;28;19916;-65
2023/03/16 14:18:20;;;;;;;;;;;19.70;85.00;;;;;;5116721;28;20007;-65
2023/03/16 14:20:46;;;;;;;;;;;19.70;84.90;;;;;;5118006;28;19999;-64